Plevna, MT (59344)

4:21 AM MST on February 07, 2016 (GMT -0700)
Baker Municipal | | Change Station
CLOSE
Current Station
Airport
Location: Baker,
Elevation: 2972 ft
Nearby Weather Stations
Active Advisory: High Wind Warning

Elev 2972 ft 46.35 °N, 104.26 °W | Updated 30 minutes ago

Partly Cloudy
Partly Cloudy
34 °F
Feels Like 20 °F
N
31
Wind Variable Wind from WNW
Gusts 43 mph

Today
High -- | Low -- °F
--% Chance of Precip.
Yesterday
High -- | Low -- °F
Precip. -- in
Pressure 30.05 in
Visibility 10.0 miles
Clouds Clear
Windchill 20 °F
Dew Point 13 °F
Humidity 42%
Rainfall 0.00 in
Snow Depth Not available.
7:14 AM 5:11 PM
Waning Crescent, 2% visible
METAR KBHK 071051Z AUTO 30027G37KT 10SM CLR 01/M11 A3001 RMK AO2 PK WND 29037/1050 SLP176 T00111106
Pressure 30.05 in
Visibility 10.0 miles
Clouds Clear
Windchill 20 °F
Dew Point 13 °F
Humidity 42%
Rainfall 0.00 in
Snow Depth Not available.
7:14 AM 5:11 PM
Waning Crescent, 2% visible
METAR KBHK 071051Z AUTO 30027G37KT 10SM CLR 01/M11 A3001 RMK AO2 PK WND 29037/1050 SLP176 T00111106

10-Day Weather Forecast

Almanac

Astronomy

Feb. 07, 2016 Rise Set
Actual Time
Civil Twilight
Nautical Twilight
Astronomical Twilight
Moon
Length of Visible Light
Length of Day
Tomorrow will be .
, % of the Moon is Illuminated

Today's Extremes

State Highs State Lows

Community

WunderPhotos

Upload Photos

1,891,170 photos uploaded!

WunderBlog® & News

Nearby

Air Quality

  Air Quality AQ Index Pollutant
Not available.

Snow Depth

Station Depth Elevation

Earthquake Activity

City Distance Mag. Time & Date
Minimum magnitude displayed is 2.5.

Coastal Water Temperatures

Place Temperature

Stations

Nearby Weather Stations

Station Location Temp. Windchill Dew Point Humidity Wind Precip. Elev Updated Type
                   

Watches & Warnings

High Wind Warning
Issued: 3:28 AM MST Feb. 7, 2016 – National Weather Service

... High Wind Warning remains in effect until 8 PM MST this
evening...

* impacts... dangerous cross winds will make travel hazardous for
high profile and Load carrying vehicles.

* Timing... west to northwest winds will increase today before
gradually diminishing this evening.

* Winds... peak gusts from 55 to 65 mph are expected with the
strongest winds found closer to the Montana and Dakota border.



Http://weather.Gov/Billings